sensor_id;sensor_type;location;lat;lon;timestamp;pressure;altitude;pressure_sealevel;temperature
67966;BMP280;54749;47.850;9.002;2024-01-15T00:00:39;94952.59;;;0.28
67966;BMP280;54749;47.850;9.002;2024-01-15T00:03:27;94950.28;;;0.25
67966;BMP280;54749;47.850;9.002;2024-01-15T00:05:54;94960.34;;;0.22
67966;BMP280;54749;47.850;9.002;2024-01-15T00:08:21;94965.50;;;0.19
67966;BMP280;54749;47.850;9.002;2024-01-15T00:10:48;94963.25;;;0.15
67966;BMP280;54749;47.850;9.002;2024-01-15T00:13:16;94947.72;;;0.11
67966;BMP280;54749;47.850;9.002;2024-01-15T00:15:43;94941.31;;;0.07
67966;BMP280;54749;47.850;9.002;2024-01-15T00:18:11;94949.06;;;0.01
67966;BMP280;54749;47.850;9.002;2024-01-15T00:20:38;94947.69;;;-0.04
67966;BMP280;54749;47.850;9.002;2024-01-15T00:23:05;94950.78;;;-0.16
67966;BMP280;54749;47.850;9.002;2024-01-15T00:25:32;94942.59;;;-0.33
67966;BMP280;54749;47.850;9.002;2024-01-15T00:27:59;94951.75;;;-0.50
67966;BMP280;54749;47.850;9.002;2024-01-15T00:30:26;94956.22;;;-0.72
67966;BMP280;54749;47.850;9.002;2024-01-15T00:32:54;94960.34;;;-0.88
67966;BMP280;54749;47.850;9.002;2024-01-15T00:35:21;94951.56;;;-0.95
67966;BMP280;54749;47.850;9.002;2024-01-15T00:37:48;94952.75;;;-1.02
67966;BMP280;54749;47.850;9.002;2024-01-15T00:40:15;94962.22;;;-1.09
67966;BMP280;54749;47.850;9.002;2024-01-15T00:42:43;94948.28;;;-1.12
67966;BMP280;54749;47.850;9.002;2024-01-15T00:45:10;94959.97;;;-1.14
67966;BMP280;54749;47.850;9.002;2024-01-15T00:47:37;94963.47;;;-1.18
67966;BMP280;54749;47.850;9.002;2024-01-15T00:50:05;94955.50;;;-1.24
67966;BMP280;54749;47.850;9.002;2024-01-15T00:52:32;94959.44;;;-1.37
67966;BMP280;54749;47.850;9.002;2024-01-15T00:54:59;94970.91;;;-1.52
67966;BMP280;54749;47.850;9.002;2024-01-15T00:57:27;94977.00;;;-1.59
67966;BMP280;54749;47.850;9.002;2024-01-15T00:59:54;94979.06;;;-1.50
67966;BMP280;54749;47.850;9.002;2024-01-15T01:02:21;94978.38;;;-1.36
67966;BMP280;54749;47.850;9.002;2024-01-15T01:04:48;94988.66;;;-1.26
67966;BMP280;54749;47.850;9.002;2024-01-15T01:07:15;94980.88;;;-1.19
67966;BMP280;54749;47.850;9.002;2024-01-15T01:09:42;94985.69;;;-1.16
67966;BMP280;54749;47.850;9.002;2024-01-15T01:12:11;94988.16;;;-1.16
67966;BMP280;54749;47.850;9.002;2024-01-15T01:14:38;94987.56;;;-1.21
67966;BMP280;54749;47.850;9.002;2024-01-15T01:17:06;94991.88;;;-1.24
67966;BMP280;54749;47.850;9.002;2024-01-15T01:19:32;94995.41;;;-1.30
67966;BMP280;54749;47.850;9.002;2024-01-15T01:22:00;95004.59;;;-1.32
67966;BMP280;54749;47.850;9.002;2024-01-15T01:24:27;95010.72;;;-1.39
67966;BMP280;54749;47.850;9.002;2024-01-15T01:26:54;95020.69;;;-1.40
67966;BMP280;54749;47.850;9.002;2024-01-15T01:29:21;95018.94;;;-1.38
67966;BMP280;54749;47.850;9.002;2024-01-15T01:31:50;95027.25;;;-1.39
67966;BMP280;54749;47.850;9.002;2024-01-15T01:34:17;95029.78;;;-1.40
67966;BMP280;54749;47.850;9.002;2024-01-15T01:36:44;95026.50;;;-1.41
67966;BMP280;54749;47.850;9.002;2024-01-15T01:39:11;95024.84;;;-1.40
67966;BMP280;54749;47.850;9.002;2024-01-15T01:41:39;95025.00;;;-1.43
67966;BMP280;54749;47.850;9.002;2024-01-15T01:44:06;95025.66;;;-1.40
67966;BMP280;54749;47.850;9.002;2024-01-15T01:46:36;95027.53;;;-1.45
67966;BMP280;54749;47.850;9.002;2024-01-15T01:49:08;95026.00;;;-1.47
67966;BMP280;54749;47.850;9.002;2024-01-15T01:51:36;95025.50;;;-1.55
67966;BMP280;54749;47.850;9.002;2024-01-15T01:54:07;95024.91;;;-1.60
67966;BMP280;54749;47.850;9.002;2024-01-15T01:56:36;95027.94;;;-1.72
67966;BMP280;54749;47.850;9.002;2024-01-15T01:59:04;95030.00;;;-1.81
67966;BMP280;54749;47.850;9.002;2024-01-15T02:01:32;95025.25;;;-1.85
67966;BMP280;54749;47.850;9.002;2024-01-15T02:03:59;95022.88;;;-1.87
67966;BMP280;54749;47.850;9.002;2024-01-15T02:06:27;95014.44;;;-1.83
67966;BMP280;54749;47.850;9.002;2024-01-15T02:08:55;95022.31;;;-1.75
67966;BMP280;54749;47.850;9.002;2024-01-15T02:11:22;95016.91;;;-1.65
67966;BMP280;54749;47.850;9.002;2024-01-15T02:13:50;95008.94;;;-1.53
67966;BMP280;54749;47.850;9.002;2024-01-15T02:16:17;95010.84;;;-1.41
67966;BMP280;54749;47.850;9.002;2024-01-15T02:18:45;95001.19;;;-1.29
67966;BMP280;54749;47.850;9.002;2024-01-15T02:21:13;95002.31;;;-1.18
67966;BMP280;54749;47.850;9.002;2024-01-15T02:23:40;95006.84;;;-1.09
67966;BMP280;54749;47.850;9.002;2024-01-15T02:26:07;95004.88;;;-1.03
67966;BMP280;54749;47.850;9.002;2024-01-15T02:28:35;94998.88;;;-0.99
67966;BMP280;54749;47.850;9.002;2024-01-15T02:31:02;95000.72;;;-1.03
67966;BMP280;54749;47.850;9.002;2024-01-15T02:33:29;95000.13;;;-1.07
67966;BMP280;54749;47.850;9.002;2024-01-15T02:35:57;94999.63;;;-1.14
67966;BMP280;54749;47.850;9.002;2024-01-15T02:38:24;94999.38;;;-1.26
67966;BMP280;54749;47.850;9.002;2024-01-15T02:40:51;94993.25;;;-1.36
67966;BMP280;54749;47.850;9.002;2024-01-15T02:43:18;94995.28;;;-1.43
67966;BMP280;54749;47.850;9.002;2024-01-15T02:45:46;94995.69;;;-1.52
67966;BMP280;54749;47.850;9.002;2024-01-15T02:48:14;95006.81;;;-1.60
67966;BMP280;54749;47.850;9.002;2024-01-15T02:50:41;95006.25;;;-1.67
67966;BMP280;54749;47.850;9.002;2024-01-15T02:53:08;95006.66;;;-1.75
67966;BMP280;54749;47.850;9.002;2024-01-15T02:55:36;95003.72;;;-1.83
67966;BMP280;54749;47.850;9.002;2024-01-15T02:58:03;95000.78;;;-1.91
67966;BMP280;54749;47.850;9.002;2024-01-15T03:00:31;94997.63;;;-1.94
67966;BMP280;54749;47.850;9.002;2024-01-15T03:02:58;94999.72;;;-2.04
67966;BMP280;54749;47.850;9.002;2024-01-15T03:05:25;94990.97;;;-2.12
67966;BMP280;54749;47.850;9.002;2024-01-15T03:07:52;94993.00;;;-2.20
67966;BMP280;54749;47.850;9.002;2024-01-15T03:10:20;95000.75;;;-2.27
67966;BMP280;54749;47.850;9.002;2024-01-15T03:12:46;94999.41;;;-2.34
67966;BMP280;54749;47.850;9.002;2024-01-15T03:15:14;94993.09;;;-2.41
67966;BMP280;54749;47.850;9.002;2024-01-15T03:17:41;95008.19;;;-2.46
67966;BMP280;54749;47.850;9.002;2024-01-15T03:20:10;94995.16;;;-2.50
67966;BMP280;54749;47.850;9.002;2024-01-15T03:22:38;95003.50;;;-2.52
67966;BMP280;54749;47.850;9.002;2024-01-15T03:25:06;94992.94;;;-2.56
67966;BMP280;54749;47.850;9.002;2024-01-15T03:27:33;94989.72;;;-2.58
67966;BMP280;54749;47.850;9.002;2024-01-15T03:30:00;94988.19;;;-2.60
67966;BMP280;54749;47.850;9.002;2024-01-15T03:32:29;94986.63;;;-2.63
67966;BMP280;54749;47.850;9.002;2024-01-15T03:34:56;94977.78;;;-2.68
67966;BMP280;54749;47.850;9.002;2024-01-15T03:37:23;94972.31;;;-2.74
67966;BMP280;54749;47.850;9.002;2024-01-15T03:39:51;94966.00;;;-2.81
67966;BMP280;54749;47.850;9.002;2024-01-15T03:42:18;94972.00;;;-2.86
67966;BMP280;54749;47.850;9.002;2024-01-15T03:44:45;94969.78;;;-2.92
67966;BMP280;54749;47.850;9.002;2024-01-15T03:47:12;94972.56;;;-2.99
67966;BMP280;54749;47.850;9.002;2024-01-15T03:49:40;94971.38;;;-3.11
67966;BMP280;54749;47.850;9.002;2024-01-15T03:52:07;94969.25;;;-3.19
67966;BMP280;54749;47.850;9.002;2024-01-15T03:54:34;94975.53;;;-3.32
67966;BMP280;54749;47.850;9.002;2024-01-15T03:57:02;94973.16;;;-3.33
67966;BMP280;54749;47.850;9.002;2024-01-15T03:59:32;94966.16;;;-3.24
67966;BMP280;54749;47.850;9.002;2024-01-15T04:01:59;94979.53;;;-3.09
67966;BMP280;54749;47.850;9.002;2024-01-15T04:04:26;94974.84;;;-2.95
67966;BMP280;54749;47.850;9.002;2024-01-15T04:06:53;94974.28;;;-2.82
67966;BMP280;54749;47.850;9.002;2024-01-15T04:09:20;94964.09;;;-2.75
67966;BMP280;54749;47.850;9.002;2024-01-15T04:11:48;94968.78;;;-2.69
67966;BMP280;54749;47.850;9.002;2024-01-15T04:14:15;94962.91;;;-2.66
67966;BMP280;54749;47.850;9.002;2024-01-15T04:16:42;94966.84;;;-2.63
67966;BMP280;54749;47.850;9.002;2024-01-15T04:19:09;94965.00;;;-2.58
67966;BMP280;54749;47.850;9.002;2024-01-15T04:21:36;94955.59;;;-2.50
67966;BMP280;54749;47.850;9.002;2024-01-15T04:24:04;94962.63;;;-2.41
67966;BMP280;54749;47.850;9.002;2024-01-15T04:26:31;94959.84;;;-2.34
67966;BMP280;54749;47.850;9.002;2024-01-15T04:28:58;94965.25;;;-2.26
67966;BMP280;54749;47.850;9.002;2024-01-15T04:31:26;94961.59;;;-2.18
67966;BMP280;54749;47.850;9.002;2024-01-15T04:33:56;94960.38;;;-2.10
67966;BMP280;54749;47.850;9.002;2024-01-15T04:36:23;94946.00;;;-2.02
67966;BMP280;54749;47.850;9.002;2024-01-15T04:38:51;94952.69;;;-2.04
67966;BMP280;54749;47.850;9.002;2024-01-15T04:41:18;94939.78;;;-2.10
67966;BMP280;54749;47.850;9.002;2024-01-15T04:43:46;94952.34;;;-2.14
67966;BMP280;54749;47.850;9.002;2024-01-15T04:46:13;94955.56;;;-2.12
67966;BMP280;54749;47.850;9.002;2024-01-15T04:48:40;94956.91;;;-2.06
67966;BMP280;54749;47.850;9.002;2024-01-15T04:51:08;94954.16;;;-2.00
67966;BMP280;54749;47.850;9.002;2024-01-15T04:53:36;94954.06;;;-1.98
67966;BMP280;54749;47.850;9.002;2024-01-15T04:56:03;94963.16;;;-1.99
67966;BMP280;54749;47.850;9.002;2024-01-15T04:58:31;94957.44;;;-1.99
67966;BMP280;54749;47.850;9.002;2024-01-15T05:00:58;94965.66;;;-1.99
67966;BMP280;54749;47.850;9.002;2024-01-15T05:03:25;94955.69;;;-1.97
67966;BMP280;54749;47.850;9.002;2024-01-15T05:05:53;94974.47;;;-1.93
67966;BMP280;54749;47.850;9.002;2024-01-15T05:08:20;94973.41;;;-1.88
67966;BMP280;54749;47.850;9.002;2024-01-15T05:10:47;94964.78;;;-1.80
67966;BMP280;54749;47.850;9.002;2024-01-15T05:13:15;94972.75;;;-1.74
67966;BMP280;54749;47.850;9.002;2024-01-15T05:15:42;94969.97;;;-1.68
67966;BMP280;54749;47.850;9.002;2024-01-15T05:18:09;94968.09;;;-1.63
67966;BMP280;54749;47.850;9.002;2024-01-15T05:20:36;94962.88;;;-1.57
67966;BMP280;54749;47.850;9.002;2024-01-15T05:23:04;94961.94;;;-1.55
67966;BMP280;54749;47.850;9.002;2024-01-15T05:25:31;94958.59;;;-1.54
67966;BMP280;54749;47.850;9.002;2024-01-15T05:27:58;94956.91;;;-1.53
67966;BMP280;54749;47.850;9.002;2024-01-15T05:30:25;94956.06;;;-1.52
67966;BMP280;54749;47.850;9.002;2024-01-15T05:32:53;94951.81;;;-1.50
67966;BMP280;54749;47.850;9.002;2024-01-15T05:35:20;94943.69;;;-1.52
67966;BMP280;54749;47.850;9.002;2024-01-15T05:37:47;94957.94;;;-1.57
67966;BMP280;54749;47.850;9.002;2024-01-15T05:40:15;94951.38;;;-1.58
67966;BMP280;54749;47.850;9.002;2024-01-15T05:42:42;94955.47;;;-1.57
67966;BMP280;54749;47.850;9.002;2024-01-15T05:45:09;94962.75;;;-1.54
67966;BMP280;54749;47.850;9.002;2024-01-15T05:47:37;94957.72;;;-1.53
67966;BMP280;54749;47.850;9.002;2024-01-15T05:50:04;94951.91;;;-1.52
67966;BMP280;54749;47.850;9.002;2024-01-15T05:52:32;94938.13;;;-1.57
67966;BMP280;54749;47.850;9.002;2024-01-15T05:54:59;94938.25;;;-1.60
67966;BMP280;54749;47.850;9.002;2024-01-15T05:57:26;94925.63;;;-1.72
67966;BMP280;54749;47.850;9.002;2024-01-15T05:59:54;94927.44;;;-1.75
67966;BMP280;54749;47.850;9.002;2024-01-15T06:02:21;94929.06;;;-1.75
67966;BMP280;54749;47.850;9.002;2024-01-15T06:04:48;94939.75;;;-1.74
67966;BMP280;54749;47.850;9.002;2024-01-15T06:07:16;94935.72;;;-1.76
67966;BMP280;54749;47.850;9.002;2024-01-15T06:09:43;94933.13;;;-1.74
67966;BMP280;54749;47.850;9.002;2024-01-15T06:12:10;94923.09;;;-1.71
67966;BMP280;54749;47.850;9.002;2024-01-15T06:14:37;94922.22;;;-1.70
67966;BMP280;54749;47.850;9.002;2024-01-15T06:17:04;94918.75;;;-1.66
67966;BMP280;54749;47.850;9.002;2024-01-15T06:19:31;94926.75;;;-1.61
67966;BMP280;54749;47.850;9.002;2024-01-15T06:21:59;94927.47;;;-1.59
67966;BMP280;54749;47.850;9.002;2024-01-15T06:24:26;94933.19;;;-1.57
67966;BMP280;54749;47.850;9.002;2024-01-15T06:26:54;94934.78;;;-1.56
67966;BMP280;54749;47.850;9.002;2024-01-15T06:29:21;94928.13;;;-1.56
67966;BMP280;54749;47.850;9.002;2024-01-15T06:31:49;94924.72;;;-1.53
67966;BMP280;54749;47.850;9.002;2024-01-15T06:34:16;94922.19;;;-1.52
67966;BMP280;54749;47.850;9.002;2024-01-15T06:36:44;94927.66;;;-1.45
67966;BMP280;54749;47.850;9.002;2024-01-15T06:39:11;94913.59;;;-1.45
67966;BMP280;54749;47.850;9.002;2024-01-15T06:41:38;94919.19;;;-1.41
67966;BMP280;54749;47.850;9.002;2024-01-15T06:44:10;94918.97;;;-1.37
67966;BMP280;54749;47.850;9.002;2024-01-15T06:46:45;94914.63;;;-1.32
67966;BMP280;54749;47.850;9.002;2024-01-15T06:49:12;94924.31;;;-1.28
67966;BMP280;54749;47.850;9.002;2024-01-15T06:51:39;94906.53;;;-1.19
67966;BMP280;54749;47.850;9.002;2024-01-15T06:54:07;94911.34;;;-1.16
67966;BMP280;54749;47.850;9.002;2024-01-15T06:56:34;94902.88;;;-1.12
67966;BMP280;54749;47.850;9.002;2024-01-15T06:59:01;94913.31;;;-1.06
67966;BMP280;54749;47.850;9.002;2024-01-15T07:01:29;94915.56;;;-1.02
67966;BMP280;54749;47.850;9.002;2024-01-15T07:03:56;94921.81;;;-0.95
67966;BMP280;54749;47.850;9.002;2024-01-15T07:06:23;94927.38;;;-0.90
67966;BMP280;54749;47.850;9.002;2024-01-15T07:08:50;94922.84;;;-0.82
67966;BMP280;54749;47.850;9.002;2024-01-15T07:11:17;94924.38;;;-0.80
67966;BMP280;54749;47.850;9.002;2024-01-15T07:13:44;94947.19;;;-0.73
67966;BMP280;54749;47.850;9.002;2024-01-15T07:16:12;94935.38;;;-0.69
67966;BMP280;54749;47.850;9.002;2024-01-15T07:18:43;94926.03;;;-0.64
67966;BMP280;54749;47.850;9.002;2024-01-15T07:21:10;94932.31;;;-0.57
67966;BMP280;54749;47.850;9.002;2024-01-15T07:23:37;94922.97;;;-0.52
67966;BMP280;54749;47.850;9.002;2024-01-15T07:26:05;94920.25;;;-0.48
67966;BMP280;54749;47.850;9.002;2024-01-15T07:28:32;94916.81;;;-0.45
67966;BMP280;54749;47.850;9.002;2024-01-15T07:30:59;94913.28;;;-0.41
67966;BMP280;54749;47.850;9.002;2024-01-15T07:33:30;94908.16;;;-0.38
67966;BMP280;54749;47.850;9.002;2024-01-15T07:35:58;94906.41;;;-0.36
67966;BMP280;54749;47.850;9.002;2024-01-15T07:38:29;94900.81;;;-0.40
67966;BMP280;54749;47.850;9.002;2024-01-15T07:40:56;94907.28;;;-0.37
67966;BMP280;54749;47.850;9.002;2024-01-15T07:43:23;94908.59;;;-0.31
67966;BMP280;54749;47.850;9.002;2024-01-15T07:45:51;94903.41;;;-0.26
67966;BMP280;54749;47.850;9.002;2024-01-15T07:48:17;94910.50;;;-0.20
67966;BMP280;54749;47.850;9.002;2024-01-15T07:50:45;94916.78;;;-0.14
67966;BMP280;54749;47.850;9.002;2024-01-15T07:53:12;94922.31;;;-0.09
67966;BMP280;54749;47.850;9.002;2024-01-15T07:55:40;94926.25;;;-0.05
67966;BMP280;54749;47.850;9.002;2024-01-15T07:58:07;94909.66;;;-0.04
67966;BMP280;54749;47.850;9.002;2024-01-15T08:00:42;94922.22;;;-0.07
67966;BMP280;54749;47.850;9.002;2024-01-15T08:03:11;94931.69;;;0.01
67966;BMP280;54749;47.850;9.002;2024-01-15T08:05:39;94925.44;;;0.10
67966;BMP280;54749;47.850;9.002;2024-01-15T08:08:06;94921.91;;;0.14
67966;BMP280;54749;47.850;9.002;2024-01-15T08:10:33;94933.03;;;0.22
67966;BMP280;54749;47.850;9.002;2024-01-15T08:13:00;94933.69;;;0.25
67966;BMP280;54749;47.850;9.002;2024-01-15T08:15:27;94923.53;;;0.30
67966;BMP280;54749;47.850;9.002;2024-01-15T08:17:57;94920.31;;;0.28
67966;BMP280;54749;47.850;9.002;2024-01-15T08:20:25;94928.16;;;0.35
67966;BMP280;54749;47.850;9.002;2024-01-15T08:22:53;94935.84;;;0.46
67966;BMP280;54749;47.850;9.002;2024-01-15T08:25:20;94936.16;;;0.55
67966;BMP280;54749;47.850;9.002;2024-01-15T08:27:47;94936.78;;;0.59
67966;BMP280;54749;47.850;9.002;2024-01-15T08:30:15;94945.38;;;0.69
67966;BMP280;54749;47.850;9.002;2024-01-15T08:32:42;94929.22;;;0.75
67966;BMP280;54749;47.850;9.002;2024-01-15T08:35:10;94927.47;;;0.77
67966;BMP280;54749;47.850;9.002;2024-01-15T08:37:38;94928.09;;;0.81
67966;BMP280;54749;47.850;9.002;2024-01-15T08:40:06;94935.22;;;0.87
67966;BMP280;54749;47.850;9.002;2024-01-15T08:42:33;94947.25;;;0.94
67966;BMP280;54749;47.850;9.002;2024-01-15T08:45:00;94932.88;;;0.99
67966;BMP280;54749;47.850;9.002;2024-01-15T08:47:28;94937.84;;;0.99
67966;BMP280;54749;47.850;9.002;2024-01-15T08:49:55;94937.34;;;1.07
67966;BMP280;54749;47.850;9.002;2024-01-15T08:52:23;94933.44;;;1.17
67966;BMP280;54749;47.850;9.002;2024-01-15T08:54:50;94934.09;;;1.21
67966;BMP280;54749;47.850;9.002;2024-01-15T08:57:17;94936.75;;;1.31
67966;BMP280;54749;47.850;9.002;2024-01-15T08:59:45;94921.03;;;1.31
67966;BMP280;54749;47.850;9.002;2024-01-15T09:02:12;94921.38;;;1.39
67966;BMP280;54749;47.850;9.002;2024-01-15T09:04:39;94913.94;;;1.52
67966;BMP280;54749;47.850;9.002;2024-01-15T09:07:07;94907.53;;;1.62
67966;BMP280;54749;47.850;9.002;2024-01-15T09:09:34;94900.16;;;1.74
67966;BMP280;54749;47.850;9.002;2024-01-15T09:12:02;94902.91;;;1.83
67966;BMP280;54749;47.850;9.002;2024-01-15T09:14:29;94905.41;;;1.83
67966;BMP280;54749;47.850;9.002;2024-01-15T09:17:04;94915.63;;;1.79
67966;BMP280;54749;47.850;9.002;2024-01-15T09:19:32;94917.25;;;1.80
67966;BMP280;54749;47.850;9.002;2024-01-15T09:21:59;94924.44;;;1.98
67966;BMP280;54749;47.850;9.002;2024-01-15T09:24:27;94909.06;;;2.82
67966;BMP280;54749;47.850;9.002;2024-01-15T09:26:55;94908.56;;;3.28
67966;BMP280;54749;47.850;9.002;2024-01-15T09:29:23;94955.41;;;4.34
67966;BMP280;54749;47.850;9.002;2024-01-15T09:31:51;94908.13;;;4.99
67966;BMP280;54749;47.850;9.002;2024-01-15T09:34:19;94905.75;;;5.31
67966;BMP280;54749;47.850;9.002;2024-01-15T09:36:47;94897.56;;;6.27
67966;BMP280;54749;47.850;9.002;2024-01-15T09:39:16;94890.78;;;8.30
67966;BMP280;54749;47.850;9.002;2024-01-15T09:41:43;94944.28;;;10.72
67966;BMP280;54749;47.850;9.002;2024-01-15T09:44:11;94875.19;;;11.83
67966;BMP280;54749;47.850;9.002;2024-01-15T09:46:39;94880.88;;;13.23
67966;BMP280;54749;47.850;9.002;2024-01-15T09:49:07;94870.78;;;14.01
67966;BMP280;54749;47.850;9.002;2024-01-15T09:51:35;94867.94;;;14.86
67966;BMP280;54749;47.850;9.002;2024-01-15T09:54:04;94855.22;;;16.03
67966;BMP280;54749;47.850;9.002;2024-01-15T09:56:31;94830.31;;;15.91
67966;BMP280;54749;47.850;9.002;2024-01-15T09:58:59;94849.09;;;16.12
67966;BMP280;54749;47.850;9.002;2024-01-15T10:01:28;94861.75;;;14.81
67966;BMP280;54749;47.850;9.002;2024-01-15T10:03:56;94849.66;;;14.90
67966;BMP280;54749;47.850;9.002;2024-01-15T10:06:26;94840.94;;;13.87
67966;BMP280;54749;47.850;9.002;2024-01-15T10:08:56;94828.97;;;15.23
67966;BMP280;54749;47.850;9.002;2024-01-15T10:11:24;94825.44;;;15.24
67966;BMP280;54749;47.850;9.002;2024-01-15T10:13:52;94835.06;;;13.40
67966;BMP280;54749;47.850;9.002;2024-01-15T10:16:23;94846.59;;;12.15
67966;BMP280;54749;47.850;9.002;2024-01-15T10:18:51;94842.59;;;11.38
67966;BMP280;54749;47.850;9.002;2024-01-15T10:21:18;94844.66;;;10.91
67966;BMP280;54749;47.850;9.002;2024-01-15T10:23:45;94821.63;;;10.60
67966;BMP280;54749;47.850;9.002;2024-01-15T10:26:12;94833.13;;;10.19
67966;BMP280;54749;47.850;9.002;2024-01-15T10:28:42;94808.41;;;11.00
67966;BMP280;54749;47.850;9.002;2024-01-15T10:31:09;94804.88;;;12.67
67966;BMP280;54749;47.850;9.002;2024-01-15T10:33:37;94796.09;;;14.17
67966;BMP280;54749;47.850;9.002;2024-01-15T10:36:09;94785.22;;;15.20
67966;BMP280;54749;47.850;9.002;2024-01-15T10:38:37;94785.31;;;15.70
67966;BMP280;54749;47.850;9.002;2024-01-15T10:41:04;94780.03;;;15.85
67966;BMP280;54749;47.850;9.002;2024-01-15T10:43:32;94787.84;;;15.34
67966;BMP280;54749;47.850;9.002;2024-01-15T10:45:59;94775.75;;;14.92
67966;BMP280;54749;47.850;9.002;2024-01-15T10:48:27;94767.69;;;15.24
67966;BMP280;54749;47.850;9.002;2024-01-15T10:50:55;94757.19;;;15.27
67966;BMP280;54749;47.850;9.002;2024-01-15T10:53:23;94762.09;;;13.81
67966;BMP280;54749;47.850;9.002;2024-01-15T10:55:51;94759.28;;;14.72
67966;BMP280;54749;47.850;9.002;2024-01-15T10:58:20;94765.63;;;15.06
67966;BMP280;54749;47.850;9.002;2024-01-15T11:00:48;94758.56;;;16.16
67966;BMP280;54749;47.850;9.002;2024-01-15T11:03:17;94751.97;;;17.25
67966;BMP280;54749;47.850;9.002;2024-01-15T11:05:45;94753.88;;;16.19
67966;BMP280;54749;47.850;9.002;2024-01-15T11:08:13;94753.72;;;16.83
67966;BMP280;54749;47.850;9.002;2024-01-15T11:10:45;94752.16;;;16.06
67966;BMP280;54749;47.850;9.002;2024-01-15T11:15:57;94775.63;;;15.07
67966;BMP280;54749;47.850;9.002;2024-01-15T11:18:30;94763.03;;;16.28
67966;BMP280;54749;47.850;9.002;2024-01-15T11:23:46;94754.78;;;16.26
67966;BMP280;54749;47.850;9.002;2024-01-15T11:26:34;94744.53;;;17.77
67966;BMP280;54749;47.850;9.002;2024-01-15T11:29:05;94751.28;;;18.11
67966;BMP280;54749;47.850;9.002;2024-01-15T11:34:10;94775.25;;;14.67
67966;BMP280;54749;47.850;9.002;2024-01-15T11:42:01;94780.50;;;9.98
67966;BMP280;54749;47.850;9.002;2024-01-15T11:44:30;94782.88;;;9.55
67966;BMP280;54749;47.850;9.002;2024-01-15T11:47:08;94788.88;;;9.44
67966;BMP280;54749;47.850;9.002;2024-01-15T11:49:59;94773.84;;;9.08
67966;BMP280;54749;47.850;9.002;2024-01-15T11:52:33;94778.06;;;8.89
67966;BMP280;54749;47.850;9.002;2024-01-15T11:55:07;94779.03;;;8.69
67966;BMP280;54749;47.850;9.002;2024-01-15T11:57:42;94761.66;;;8.75
67966;BMP280;54749;47.850;9.002;2024-01-15T12:00:12;94767.47;;;8.39
67966;BMP280;54749;47.850;9.002;2024-01-15T12:02:41;94767.09;;;7.96
67966;BMP280;54749;47.850;9.002;2024-01-15T12:05:13;94760.66;;;7.73
67966;BMP280;54749;47.850;9.002;2024-01-15T12:07:42;94751.16;;;7.86
67966;BMP280;54749;47.850;9.002;2024-01-15T12:10:11;94749.47;;;7.96
67966;BMP280;54749;47.850;9.002;2024-01-15T12:13:00;94756.41;;;7.16
67966;BMP280;54749;47.850;9.002;2024-01-15T12:15:31;94771.84;;;6.71
67966;BMP280;54749;47.850;9.002;2024-01-15T12:18:00;94771.25;;;6.99
67966;BMP280;54749;47.850;9.002;2024-01-15T12:20:30;94768.44;;;7.12
67966;BMP280;54749;47.850;9.002;2024-01-15T12:22:58;94763.69;;;7.38
67966;BMP280;54749;47.850;9.002;2024-01-15T12:25:30;94754.97;;;7.42
67966;BMP280;54749;47.850;9.002;2024-01-15T12:27:58;94762.56;;;7.32
67966;BMP280;54749;47.850;9.002;2024-01-15T12:30:27;94751.88;;;7.30
67966;BMP280;54749;47.850;9.002;2024-01-15T12:32:55;94761.38;;;7.06
67966;BMP280;54749;47.850;9.002;2024-01-15T12:35:24;94757.31;;;6.55
67966;BMP280;54749;47.850;9.002;2024-01-15T12:37:54;94759.06;;;6.44
67966;BMP280;54749;47.850;9.002;2024-01-15T12:40:22;94749.41;;;6.39
67966;BMP280;54749;47.850;9.002;2024-01-15T12:42:50;94742.69;;;6.40
67966;BMP280;54749;47.850;9.002;2024-01-15T12:45:17;94748.53;;;6.49
67966;BMP280;54749;47.850;9.002;2024-01-15T12:47:45;94761.94;;;6.39
67966;BMP280;54749;47.850;9.002;2024-01-15T12:50:13;94745.56;;;6.25
67966;BMP280;54749;47.850;9.002;2024-01-15T12:52:46;94743.06;;;6.25
67966;BMP280;54749;47.850;9.002;2024-01-15T12:55:14;94743.06;;;6.25
67966;BMP280;54749;47.850;9.002;2024-01-15T12:57:42;94743.56;;;6.19
67966;BMP280;54749;47.850;9.002;2024-01-15T13:00:10;94742.06;;;6.16
67966;BMP280;54749;47.850;9.002;2024-01-15T13:02:41;94752.03;;;5.86
67966;BMP280;54749;47.850;9.002;2024-01-15T13:05:11;94758.22;;;5.82
67966;BMP280;54749;47.850;9.002;2024-01-15T13:07:41;94738.63;;;5.76
67966;BMP280;54749;47.850;9.002;2024-01-15T13:10:10;94746.22;;;5.85
67966;BMP280;54749;47.850;9.002;2024-01-15T13:12:40;94755.47;;;5.85
67966;BMP280;54749;47.850;9.002;2024-01-15T13:15:09;94748.97;;;5.61
67966;BMP280;54749;47.850;9.002;2024-01-15T13:17:41;94755.94;;;5.47
67966;BMP280;54749;47.850;9.002;2024-01-15T13:20:11;94740.56;;;5.30
67966;BMP280;54749;47.850;9.002;2024-01-15T13:22:40;94758.50;;;5.03
67966;BMP280;54749;47.850;9.002;2024-01-15T13:25:08;94755.22;;;4.91
67966;BMP280;54749;47.850;9.002;2024-01-15T13:27:35;94740.84;;;4.83
67966;BMP280;54749;47.850;9.002;2024-01-15T13:30:05;94744.03;;;4.74
67966;BMP280;54749;47.850;9.002;2024-01-15T13:32:35;94752.22;;;4.87
67966;BMP280;54749;47.850;9.002;2024-01-15T13:35:03;94749.72;;;4.87
67966;BMP280;54749;47.850;9.002;2024-01-15T13:37:32;94753.78;;;4.77
67966;BMP280;54749;47.850;9.002;2024-01-15T13:40:00;94755.63;;;4.75
67966;BMP280;54749;47.850;9.002;2024-01-15T13:42:27;94760.16;;;4.70
67966;BMP280;54749;47.850;9.002;2024-01-15T13:44:55;94770.81;;;4.61
67966;BMP280;54749;47.850;9.002;2024-01-15T13:47:22;94762.03;;;4.56
67966;BMP280;54749;47.850;9.002;2024-01-15T13:49:51;94761.88;;;4.36
67966;BMP280;54749;47.850;9.002;2024-01-15T13:52:17;94752.75;;;4.35
67966;BMP280;54749;47.850;9.002;2024-01-15T13:54:45;94751.81;;;4.25
67966;BMP280;54749;47.850;9.002;2024-01-15T13:57:17;94747.50;;;4.27
67966;BMP280;54749;47.850;9.002;2024-01-15T13:59:45;94749.53;;;4.22
67966;BMP280;54749;47.850;9.002;2024-01-15T14:02:13;94760.81;;;4.28
67966;BMP280;54749;47.850;9.002;2024-01-15T14:04:47;94755.81;;;4.28
67966;BMP280;54749;47.850;9.002;2024-01-15T14:07:15;94771.16;;;4.34
67966;BMP280;54749;47.850;9.002;2024-01-15T14:09:43;94765.91;;;4.26
67966;BMP280;54749;47.850;9.002;2024-01-15T14:12:10;94772.28;;;4.30
67966;BMP280;54749;47.850;9.002;2024-01-15T14:14:37;94776.81;;;4.25
67966;BMP280;54749;47.850;9.002;2024-01-15T14:17:04;94774.44;;;4.24
67966;BMP280;54749;47.850;9.002;2024-01-15T14:19:31;94788.78;;;4.10
67966;BMP280;54749;47.850;9.002;2024-01-15T14:21:59;94796.69;;;4.04
67966;BMP280;54749;47.850;9.002;2024-01-15T14:24:27;94797.53;;;3.92
67966;BMP280;54749;47.850;9.002;2024-01-15T14:26:54;94805.88;;;3.81
67966;BMP280;54749;47.850;9.002;2024-01-15T14:29:21;94797.47;;;3.82
67966;BMP280;54749;47.850;9.002;2024-01-15T14:31:49;94808.25;;;3.82